Time;durP1;ratioP1;P1;durP2;ratioP2;P2;SDS_P1;SDS_P2;PMS_P1;PMS_P2;Temp;Humidity;BMP_temperature;BMP_pressure;BME280_temperature;BME280_humidity;BME280_pressure;Samples;Min_cycle;Max_cycle;Signal;HPM_P1;HPM_P2
2023/08/22 00:00:02;;;;;;;5.35;4.85;;;28.70;96.70;;;;;;5059244;28;20045;-74
2023/08/22 00:02:39;;;;;;;8.32;5.63;;;28.70;96.70;;;;;;5058186;28;20048;-73
2023/08/22 00:05:09;;;;;;;5.53;5.03;;;28.60;96.70;;;;;;5061928;28;20100;-73
2023/08/22 00:07:38;;;;;;;8.45;5.60;;;28.50;96.70;;;;;;5045234;28;20544;-73
2023/08/22 00:10:09;;;;;;;5.80;4.80;;;28.50;96.70;;;;;;5042381;28;20510;-73
2023/08/22 00:12:37;;;;;;;5.50;5.00;;;28.50;96.70;;;;;;5044879;28;20053;-74
2023/08/22 00:15:09;;;;;;;8.15;4.85;;;28.40;96.70;;;;;;5044810;28;20062;-74
2023/08/22 00:17:37;;;;;;;5.40;4.82;;;28.40;96.70;;;;;;5041956;28;20159;-74
2023/08/22 00:20:09;;;;;;;7.15;5.13;;;28.30;96.70;;;;;;5044993;28;20052;-73
2023/08/22 00:22:37;;;;;;;9.43;5.55;;;28.30;96.70;;;;;;5042201;28;20505;-73
2023/08/22 00:25:06;;;;;;;5.30;4.85;;;28.20;96.70;;;;;;5041979;28;20131;-73
2023/08/22 00:27:35;;;;;;;5.47;4.93;;;28.30;96.70;;;;;;5045088;28;20427;-74
2023/08/22 00:30:04;;;;;;;5.68;4.90;;;28.20;96.70;;;;;;5044646;28;20143;-74
2023/08/22 00:32:33;;;;;;;5.68;5.18;;;28.20;96.70;;;;;;5048302;28;20048;-74
2023/08/22 00:35:02;;;;;;;6.45;5.00;;;28.20;96.70;;;;;;5046735;28;20621;-73
2023/08/22 00:37:31;;;;;;;5.30;4.80;;;28.10;96.70;;;;;;5045874;28;20117;-74
2023/08/22 00:40:00;;;;;;;5.70;5.18;;;28.20;96.70;;;;;;5063365;28;20046;-73
2023/08/22 00:42:28;;;;;;;5.80;5.10;;;28.20;96.70;;;;;;5045941;28;20048;-74
2023/08/22 00:44:57;;;;;;;5.68;5.18;;;28.10;96.70;;;;;;5064158;28;20041;-74
2023/08/22 00:47:25;;;;;;;8.48;5.32;;;28.00;96.70;;;;;;5047515;28;20044;-74
2023/08/22 00:49:54;;;;;;;9.93;5.13;;;27.90;96.70;;;;;;5063276;28;20141;-73
2023/08/22 00:52:23;;;;;;;7.75;5.28;;;27.90;96.70;;;;;;5044092;28;20059;-73
2023/08/22 00:54:52;;;;;;;7.20;5.28;;;27.90;96.70;;;;;;5045213;28;20033;-74
2023/08/22 00:57:22;;;;;;;6.00;5.40;;;28.00;96.70;;;;;;5062411;28;20057;-74
2023/08/22 00:59:51;;;;;;;6.40;5.80;;;27.90;96.70;;;;;;5067482;28;20039;-74
2023/08/22 01:02:19;;;;;;;5.50;5.10;;;27.90;96.70;;;;;;5067057;28;20048;-74
2023/08/22 01:04:48;;;;;;;8.40;6.18;;;27.90;96.70;;;;;;5031934;28;20048;-74
2023/08/22 01:07:25;;;;;;;5.75;5.25;;;27.80;96.70;;;;;;5063127;28;20395;-74
2023/08/22 01:10:00;;;;;;;7.43;4.95;;;27.80;96.70;;;;;;5044142;28;20064;-74
2023/08/22 01:12:33;;;;;;;5.72;5.20;;;27.80;96.70;;;;;;5027632;28;20044;-73
2023/08/22 01:15:10;;;;;;;7.47;5.05;;;27.80;96.70;;;;;;5044709;28;20045;-74
2023/08/22 01:17:39;;;;;;;6.03;5.47;;;27.80;96.70;;;;;;5069061;28;20054;-74
2023/08/22 01:20:12;;;;;;;6.68;5.63;;;27.80;96.70;;;;;;5062021;28;20032;-74
2023/08/22 01:22:42;;;;;;;6.20;5.63;;;27.60;96.70;;;;;;5043285;28;20510;-74
2023/08/22 01:25:10;;;;;;;5.97;5.38;;;27.60;96.70;;;;;;5043810;28;20048;-74
2023/08/22 01:27:49;;;;;;;6.07;5.47;;;27.50;96.70;;;;;;5044095;28;20048;-74
2023/08/22 01:30:25;;;;;;;6.00;5.47;;;27.50;96.70;;;;;;5044352;28;20052;-73
2023/08/22 01:32:58;;;;;;;5.47;5.00;;;27.50;96.70;;;;;;5044590;28;20063;-73
2023/08/22 01:35:28;;;;;;;9.18;5.53;;;27.40;96.70;;;;;;5044770;28;20071;-74
2023/08/22 01:37:59;;;;;;;6.32;5.00;;;27.40;96.70;;;;;;5064394;28;20040;-73
2023/08/22 01:40:29;;;;;;;7.63;5.38;;;27.30;96.70;;;;;;5041253;28;20041;-73
2023/08/22 01:42:59;;;;;;;6.68;5.40;;;27.40;96.70;;;;;;5065425;28;20072;-73
2023/08/22 01:45:28;;;;;;;6.40;5.70;;;27.40;96.70;;;;;;5044122;28;20045;-74
2023/08/22 01:47:56;;;;;;;5.13;4.63;;;27.40;96.70;;;;;;5042268;28;20039;-73
2023/08/22 01:50:24;;;;;;;5.80;5.20;;;27.30;96.70;;;;;;5040856;28;20045;-73
2023/08/22 01:52:52;;;;;;;5.82;4.93;;;27.20;96.70;;;;;;5043592;28;20049;-72
2023/08/22 01:55:22;;;;;;;8.65;5.03;;;27.10;96.70;;;;;;5048816;28;20041;-74
2023/08/22 01:57:50;;;;;;;5.78;5.22;;;27.20;96.70;;;;;;5044022;28;20544;-73
2023/08/22 02:00:19;;;;;;;6.57;5.65;;;27.20;96.70;;;;;;5047097;28;20048;-73
2023/08/22 02:02:47;;;;;;;6.32;5.30;;;27.20;96.70;;;;;;5065644;28;20092;-73
2023/08/22 02:05:16;;;;;;;8.20;5.57;;;27.10;96.70;;;;;;5056974;28;20048;-72
2023/08/22 02:07:45;;;;;;;5.88;5.38;;;27.00;96.70;;;;;;5042866;28;20052;-73
2023/08/22 02:10:13;;;;;;;5.47;4.97;;;26.90;96.70;;;;;;5065407;28;20560;-73
2023/08/22 02:12:43;;;;;;;7.57;5.43;;;26.80;96.70;;;;;;5065588;28;20068;-74
2023/08/22 02:15:11;;;;;;;6.43;5.70;;;26.80;96.70;;;;;;5065898;28;20040;-73
2023/08/22 02:17:40;;;;;;;8.88;5.07;;;26.80;96.70;;;;;;5027593;28;20049;-73
2023/08/22 02:20:09;;;;;;;6.03;5.40;;;26.80;96.70;;;;;;5045010;28;20054;-73
2023/08/22 02:22:39;;;;;;;7.03;5.40;;;26.80;96.70;;;;;;5046578;28;20055;-74
2023/08/22 02:25:08;;;;;;;5.55;5.03;;;26.70;96.70;;;;;;5044255;28;20060;-74
2023/08/22 02:27:37;;;;;;;5.47;4.97;;;26.70;96.70;;;;;;5046940;28;20048;-73
2023/08/22 02:30:10;;;;;;;6.78;5.72;;;26.70;96.70;;;;;;5033117;28;20084;-74
2023/08/22 02:32:39;;;;;;;6.53;5.20;;;26.60;96.70;;;;;;5023572;28;20034;-73
2023/08/22 02:35:08;;;;;;;5.30;4.85;;;26.60;96.70;;;;;;5006465;28;20147;-73
2023/08/22 02:37:37;;;;;;;5.80;5.18;;;26.50;96.70;;;;;;5025474;28;20077;-74
2023/08/22 02:40:09;;;;;;;7.65;5.10;;;26.50;96.70;;;;;;5024300;28;20132;-74
2023/08/22 02:42:37;;;;;;;6.57;4.82;;;26.60;96.70;;;;;;5022689;28;20057;-73
2023/08/22 02:45:08;;;;;;;5.90;5.35;;;26.50;96.70;;;;;;5023354;28;20462;-73
2023/08/22 02:47:36;;;;;;;6.10;5.05;;;26.50;96.70;;;;;;5023391;28;20058;-73
2023/08/22 02:50:06;;;;;;;6.80;5.10;;;26.60;96.70;;;;;;5019766;28;20064;-71
2023/08/22 02:52:36;;;;;;;5.70;5.05;;;26.50;96.70;;;;;;5020832;28;20041;-74
2023/08/22 02:55:05;;;;;;;6.07;5.38;;;26.50;96.70;;;;;;5018648;28;20067;-72
2023/08/22 02:57:35;;;;;;;6.30;5.13;;;26.50;96.70;;;;;;5021131;28;20037;-73
2023/08/22 03:00:06;;;;;;;6.88;5.47;;;26.40;96.70;;;;;;5021933;28;20679;-73
2023/08/22 03:02:36;;;;;;;9.30;5.03;;;26.40;96.70;;;;;;5017337;28;20045;-72
2023/08/22 03:05:08;;;;;;;5.97;5.38;;;26.40;96.70;;;;;;5020699;28;20131;-73
2023/08/22 03:07:37;;;;;;;5.55;4.95;;;26.40;96.70;;;;;;5021693;28;20513;-74
2023/08/22 03:10:08;;;;;;;9.82;5.55;;;26.40;96.70;;;;;;5019971;28;20133;-74
2023/08/22 03:12:37;;;;;;;5.85;5.28;;;26.30;96.70;;;;;;5024898;28;20056;-73
2023/08/22 03:15:06;;;;;;;6.20;5.57;;;26.30;96.70;;;;;;5022351;28;20041;-73
2023/08/22 03:17:40;;;;;;;7.25;5.53;;;26.30;96.70;;;;;;5023103;28;20080;-73
2023/08/22 03:20:10;;;;;;;6.35;4.90;;;26.10;96.70;;;;;;5022925;28;20042;-72
2023/08/22 03:22:39;;;;;;;6.10;5.50;;;26.10;96.70;;;;;;5020903;28;20517;-73
2023/08/22 03:25:08;;;;;;;6.53;5.90;;;26.10;96.70;;;;;;4999150;28;20072;-73
2023/08/22 03:27:39;;;;;;;5.88;5.38;;;26.00;96.70;;;;;;5022928;28;20041;-74
2023/08/22 03:30:09;;;;;;;5.97;5.38;;;26.00;96.70;;;;;;5040002;28;20074;-77
2023/08/22 03:32:39;;;;;;;6.05;5.45;;;25.90;96.70;;;;;;5045003;28;20052;-77
2023/08/22 03:35:09;;;;;;;6.35;5.75;;;25.80;96.70;;;;;;5043013;28;20450;-76
2023/08/22 03:37:41;;;;;;;6.95;6.18;;;25.70;96.70;;;;;;5042040;28;20139;-77
2023/08/22 03:40:11;;;;;;;6.53;5.80;;;25.60;96.70;;;;;;5043304;28;20073;-78
2023/08/22 03:42:39;;;;;;;6.75;5.65;;;25.50;96.70;;;;;;5062093;28;20552;-77
2023/08/22 03:45:09;;;;;;;6.50;5.90;;;25.40;96.70;;;;;;5045546;28;20048;-76
2023/08/22 03:47:40;;;;;;;6.38;5.32;;;25.40;96.70;;;;;;5038263;28;20051;-77
2023/08/22 03:50:09;;;;;;;6.60;5.78;;;25.40;96.70;;;;;;5040949;28;20175;-77
2023/08/22 03:52:37;;;;;;;6.35;5.68;;;25.30;96.70;;;;;;5041052;28;20081;-77
2023/08/22 03:55:06;;;;;;;6.20;5.70;;;25.30;96.70;;;;;;5040855;28;20044;-76
2023/08/22 03:57:34;;;;;;;6.13;5.63;;;25.20;96.70;;;;;;5025920;28;20398;-76
2023/08/22 04:00:04;;;;;;;8.02;6.55;;;25.30;96.70;;;;;;5047646;28;20502;-76
2023/08/22 04:02:42;;;;;;;6.00;5.40;;;25.30;96.70;;;;;;5049553;28;20506;-77
2023/08/22 04:05:11;;;;;;;5.85;5.20;;;25.30;96.70;;;;;;5045205;28;20048;-76
2023/08/22 04:07:39;;;;;;;8.35;5.93;;;25.20;96.70;;;;;;5044760;28;20372;-76
2023/08/22 04:10:08;;;;;;;6.47;5.70;;;25.30;96.70;;;;;;5025832;28;20053;-77
2023/08/22 04:12:37;;;;;;;6.25;5.65;;;25.20;96.70;;;;;;5043470;28;20529;-76
2023/08/22 04:15:07;;;;;;;6.78;5.60;;;25.30;96.70;;;;;;5035790;28;20049;-76
2023/08/22 04:17:35;;;;;;;6.95;5.50;;;25.30;96.70;;;;;;5045119;28;20110;-77
2023/08/22 04:20:07;;;;;;;6.10;5.43;;;25.30;96.70;;;;;;5041885;28;20067;-77
2023/08/22 04:22:35;;;;;;;5.90;5.30;;;25.30;96.70;;;;;;5052346;28;20056;-77
2023/08/22 04:25:04;;;;;;;7.88;6.15;;;25.40;96.70;;;;;;5044018;28;20064;-77
2023/08/22 04:27:33;;;;;;;7.70;5.60;;;25.30;96.70;;;;;;5044225;28;20074;-76
2023/08/22 04:30:02;;;;;;;6.75;5.50;;;25.30;96.70;;;;;;5041515;28;20503;-77
2023/08/22 04:32:31;;;;;;;6.05;5.45;;;25.30;96.70;;;;;;5049509;28;20510;-77
2023/08/22 04:35:01;;;;;;;5.88;5.28;;;25.30;96.70;;;;;;5041868;28;20681;-77
2023/08/22 04:37:31;;;;;;;6.53;6.00;;;25.40;96.70;;;;;;5045094;28;20060;-77
2023/08/22 04:40:01;;;;;;;7.50;5.70;;;25.40;96.70;;;;;;5043782;28;20056;-77
2023/08/22 04:42:45;;;;;;;6.28;5.68;;;25.40;96.70;;;;;;5044770;28;20210;-77
2023/08/22 04:45:15;;;;;;;9.05;5.70;;;25.30;96.70;;;;;;5041301;28;20040;-77
2023/08/22 04:47:43;;;;;;;7.03;6.32;;;25.30;96.70;;;;;;5044011;28;20156;-76
2023/08/22 04:50:12;;;;;;;6.88;6.22;;;25.30;96.70;;;;;;5062409;28;20044;-77
2023/08/22 04:52:42;;;;;;;6.80;6.18;;;25.30;96.70;;;;;;5068389;28;20048;-77
2023/08/22 04:55:11;;;;;;;7.72;5.68;;;25.20;96.70;;;;;;5045746;28;20040;-79
2023/08/22 04:57:39;;;;;;;6.05;5.38;;;25.30;96.70;;;;;;5041656;28;20045;-82
2023/08/22 05:00:10;;;;;;;6.63;5.95;;;25.30;96.70;;;;;;5044297;28;20430;-77
2023/08/22 05:02:38;;;;;;;7.50;6.03;;;25.30;96.70;;;;;;5043758;28;20500;-77
2023/08/22 05:05:10;;;;;;;7.60;6.15;;;25.30;96.70;;;;;;5043366;28;20152;-77
2023/08/22 05:07:38;;;;;;;6.13;5.60;;;25.30;96.70;;;;;;5019639;28;20052;-78
2023/08/22 05:10:10;;;;;;;6.57;5.97;;;25.40;96.70;;;;;;5040448;28;20383;-73
2023/08/22 05:12:38;;;;;;;5.82;5.32;;;25.30;96.70;;;;;;5044807;28;20052;-72
2023/08/22 05:15:08;;;;;;;6.07;5.45;;;25.30;96.70;;;;;;5047957;28;20033;-72
2023/08/22 05:17:37;;;;;;;6.22;5.60;;;25.30;96.70;;;;;;5056174;28;20044;-73
2023/08/22 05:20:13;;;;;;;6.63;5.65;;;25.20;96.70;;;;;;5047336;28;20242;-73
2023/08/22 05:22:43;;;;;;;;;;;25.30;96.70;;;;;;5048383;28;20131;-73
2023/08/22 05:25:13;;;;;;;7.68;6.13;;;25.40;96.70;;;;;;5047303;28;20019;-74
2023/08/22 05:27:41;;;;;;;7.68;6.13;;;25.40;96.70;;;;;;5065322;28;20036;-73
2023/08/22 05:30:10;;;;;;;6.38;5.43;;;25.40;96.70;;;;;;5033991;28;20146;-76
2023/08/22 05:32:39;;;;;;;8.30;6.70;;;25.40;96.70;;;;;;5048458;28;20045;-75
2023/08/22 05:35:08;;;;;;;8.43;6.13;;;25.50;96.70;;;;;;5047693;28;20058;-75
2023/08/22 05:37:38;;;;;;;6.72;6.13;;;25.50;96.70;;;;;;5043050;28;20044;-77
2023/08/22 05:40:09;;;;;;;6.32;5.72;;;25.40;96.70;;;;;;5047714;28;20044;-75
2023/08/22 05:42:39;;;;;;;6.85;6.25;;;25.30;96.70;;;;;;5043949;28;20650;-76
2023/08/22 05:45:08;;;;;;;10.27;5.80;;;25.50;96.70;;;;;;5040175;28;20049;-75
2023/08/22 05:47:38;;;;;;;11.18;6.32;;;25.60;96.70;;;;;;5045703;28;20032;-76
2023/08/22 05:50:08;;;;;;;6.50;5.80;;;25.60;96.70;;;;;;5047123;28;20061;-75
2023/08/22 05:52:36;;;;;;;7.13;6.53;;;25.60;96.70;;;;;;5040264;28;20037;-75
2023/08/22 05:55:06;;;;;;;9.50;6.45;;;25.70;96.70;;;;;;5046682;28;20135;-75
2023/08/22 05:57:34;;;;;;;6.90;6.20;;;25.80;96.70;;;;;;5046139;28;20114;-75
2023/08/22 06:00:08;;;;;;;6.80;6.20;;;25.80;96.70;;;;;;5048145;28;20434;-75
2023/08/22 06:02:51;;;;;;;8.68;6.55;;;25.90;96.70;;;;;;5037535;28;20044;-76
2023/08/22 06:05:20;;;;;;;8.65;7.75;;;25.90;96.70;;;;;;5050712;28;20462;-75
2023/08/22 06:07:48;;;;;;;8.27;6.72;;;26.00;96.70;;;;;;5046406;28;20501;-75
2023/08/22 06:10:17;;;;;;;7.43;6.60;;;26.00;96.70;;;;;;5045294;28;20051;-76
2023/08/22 06:12:45;;;;;;;9.63;7.03;;;26.00;96.70;;;;;;5046086;28;20090;-74
2023/08/22 06:15:15;;;;;;;9.35;6.30;;;26.00;96.70;;;;;;5065475;28;20168;-76
2023/08/22 06:17:43;;;;;;;7.72;5.90;;;26.00;96.70;;;;;;5065373;28;20075;-76
2023/08/22 06:20:12;;;;;;;8.13;6.68;;;26.10;96.70;;;;;;5047221;28;20044;-74
2023/08/22 06:22:40;;;;;;;12.45;7.15;;;26.20;96.70;;;;;;5030192;28;20048;-75
2023/08/22 06:25:09;;;;;;;9.10;6.60;;;26.30;96.70;;;;;;5046963;28;20045;-76
2023/08/22 06:27:37;;;;;;;7.07;6.38;;;26.30;96.70;;;;;;5030109;28;20678;-76
2023/08/22 06:30:07;;;;;;;8.70;7.65;;;26.40;96.70;;;;;;5036941;28;20418;-75
2023/08/22 06:32:39;;;;;;;10.02;8.30;;;26.30;96.70;;;;;;5027708;28;20049;-76
2023/08/22 06:35:08;;;;;;;7.97;7.18;;;26.30;96.70;;;;;;5047522;28;20429;-76
2023/08/22 06:37:36;;;;;;;9.93;6.65;;;26.40;96.70;;;;;;5053788;28;20041;-76
2023/08/22 06:40:07;;;;;;;11.55;6.88;;;26.50;96.70;;;;;;5043317;28;20059;-76
2023/08/22 06:42:35;;;;;;;11.23;7.28;;;26.50;96.70;;;;;;5056679;28;20090;-76
2023/08/22 06:45:07;;;;;;;14.93;7.65;;;26.70;96.70;;;;;;5031224;28;20452;-76
2023/08/22 06:47:36;;;;;;;14.10;7.57;;;26.80;96.70;;;;;;5063656;28;20036;-76
2023/08/22 06:50:07;;;;;;;9.70;7.43;;;26.80;96.70;;;;;;5049827;28;20044;-76
2023/08/22 06:52:36;;;;;;;13.73;7.15;;;26.90;96.70;;;;;;5055353;28;20045;-75
2023/08/22 06:55:05;;;;;;;14.38;7.55;;;27.00;96.70;;;;;;5047035;28;20044;-75
2023/08/22 06:57:33;;;;;;;11.25;7.43;;;27.10;96.70;;;;;;5042674;28;20044;-76
2023/08/22 07:00:14;;;;;;;9.00;7.75;;;27.10;96.70;;;;;;5041835;28;20049;-76
2023/08/22 07:02:44;;;;;;;13.60;7.25;;;27.20;96.70;;;;;;5046518;28;20494;-75
2023/08/22 07:05:15;;;;;;;12.55;7.95;;;27.30;96.70;;;;;;5044791;28;20106;-75
2023/08/22 07:07:43;;;;;;;8.57;6.82;;;27.40;96.70;;;;;;5043402;28;20060;-74
2023/08/22 07:10:12;;;;;;;10.73;7.10;;;27.50;96.70;;;;;;5059214;28;20076;-75
2023/08/22 07:12:45;;;;;;;9.20;6.95;;;27.50;96.70;;;;;;5042821;28;20087;-76
2023/08/22 07:15:13;;;;;;;8.93;6.63;;;27.60;96.70;;;;;;5063006;28;20044;-75
2023/08/22 07:17:42;;;;;;;8.80;6.55;;;27.70;96.70;;;;;;5027912;28;20056;-76
2023/08/22 07:20:15;;;;;;;9.80;7.05;;;27.80;96.70;;;;;;5058493;28;20045;-75
2023/08/22 07:22:43;;;;;;;7.32;6.35;;;27.90;96.70;;;;;;5045873;28;20057;-76
2023/08/22 07:25:12;;;;;;;7.90;7.10;;;28.00;96.70;;;;;;5046048;28;20048;-75
2023/08/22 07:27:40;;;;;;;8.43;6.43;;;28.10;96.70;;;;;;5063819;28;20044;-75
2023/08/22 07:30:10;;;;;;;7.07;6.43;;;28.10;96.70;;;;;;5058420;28;20059;-75
2023/08/22 07:32:39;;;;;;;7.60;5.90;;;28.20;96.70;;;;;;5026569;28;20056;-76
2023/08/22 07:35:08;;;;;;;9.10;6.80;;;28.30;96.70;;;;;;5046033;28;20045;-76
2023/08/22 07:37:39;;;;;;;7.35;6.68;;;28.30;96.70;;;;;;5029102;28;20056;-77
2023/08/22 07:40:09;;;;;;;7.47;6.65;;;28.40;96.70;;;;;;5063143;28;20048;-75
2023/08/22 07:42:37;;;;;;;6.68;5.97;;;28.50;96.70;;;;;;5045684;28;20040;-76
2023/08/22 07:45:07;;;;;;;7.38;6.68;;;28.60;96.70;;;;;;5063621;28;20157;-76
2023/08/22 07:47:35;;;;;;;7.80;6.28;;;28.70;96.70;;;;;;5029050;28;20036;-76
2023/08/22 07:50:05;;;;;;;9.98;6.22;;;28.80;96.70;;;;;;5046103;28;20526;-76
2023/08/22 07:52:33;;;;;;;7.28;6.30;;;28.90;96.70;;;;;;5041988;28;20084;-76
2023/08/22 07:55:04;;;;;;;7.68;6.55;;;29.00;96.70;;;;;;5054143;28;20043;-75
2023/08/22 07:57:32;;;;;;;9.52;7.10;;;29.10;96.70;;;;;;5042407;28;20060;-76
2023/08/22 08:00:01;;;;;;;8.93;6.43;;;29.20;96.70;;;;;;5042677;28;20037;-76
2023/08/22 08:02:39;;;;;;;7.18;6.18;;;29.30;96.70;;;;;;5061513;28;20063;-76
2023/08/22 08:05:08;;;;;;;11.00;6.38;;;29.40;96.70;;;;;;5042386;28;20076;-76
2023/08/22 08:07:36;;;;;;;8.25;6.22;;;29.40;96.70;;;;;;5045681;28;20047;-75
2023/08/22 08:10:08;;;;;;;9.55;6.35;;;29.50;96.70;;;;;;5045017;28;20514;-75
2023/08/22 08:12:36;;;;;;;7.15;6.40;;;29.70;96.70;;;;;;5063856;28;20044;-76
2023/08/22 08:15:06;;;;;;;10.15;6.68;;;29.80;96.70;;;;;;5063603;28;20041;-75
2023/08/22 08:17:34;;;;;;;9.93;6.72;;;29.90;96.70;;;;;;5042071;28;20074;-75
2023/08/22 08:20:04;;;;;;;8.18;6.25;;;30.00;96.70;;;;;;5053174;28;20057;-76
2023/08/22 08:22:33;;;;;;;6.18;5.68;;;30.00;96.70;;;;;;5045506;28;20041;-77
2023/08/22 08:25:03;;;;;;;7.22;6.55;;;30.10;96.70;;;;;;5041866;28;20406;-76
2023/08/22 08:27:33;;;;;;;6.88;6.18;;;30.20;96.70;;;;;;5045106;28;20051;-75
2023/08/22 08:30:06;;;;;;;6.88;6.13;;;30.30;96.70;;;;;;5043997;28;20052;-75
2023/08/22 08:32:35;;;;;;;7.03;6.32;;;30.40;96.70;;;;;;5035650;28;20041;-76
2023/08/22 08:35:04;;;;;;;6.60;6.00;;;30.60;96.70;;;;;;5028787;28;20048;-75
2023/08/22 08:37:33;;;;;;;6.50;5.90;;;30.60;96.70;;;;;;5025193;28;20453;-75
2023/08/22 08:40:05;;;;;;;8.70;6.40;;;30.70;96.70;;;;;;5044830;28;20079;-75
2023/08/22 08:42:39;;;;;;;9.52;6.60;;;30.80;96.70;;;;;;5043826;28;20114;-76
2023/08/22 08:45:08;;;;;;;8.52;6.60;;;31.00;96.70;;;;;;5055801;28;20134;-76
2023/08/22 08:47:39;;;;;;;7.78;6.70;;;31.00;96.70;;;;;;5041862;28;20049;-76
2023/08/22 08:50:09;;;;;;;9.77;6.43;;;31.10;96.70;;;;;;5044976;28;20414;-76
2023/08/22 08:52:38;;;;;;;7.75;6.43;;;31.20;96.70;;;;;;5046815;28;20091;-76
2023/08/22 08:55:07;;;;;;;10.05;6.00;;;31.30;96.70;;;;;;5058009;28;20044;-76
2023/08/22 08:57:37;;;;;;;7.25;6.57;;;31.40;96.70;;;;;;5067236;28;20440;-75
2023/08/22 09:00:07;;;;;;;7.80;6.18;;;31.60;96.70;;;;;;5054516;28;20041;-75
2023/08/22 09:02:35;;;;;;;6.40;5.85;;;31.80;96.70;;;;;;5046231;28;20495;-76
2023/08/22 09:05:04;;;;;;;9.93;6.70;;;31.90;96.70;;;;;;5048925;28;20052;-76
2023/08/22 09:07:33;;;;;;;7.65;6.95;;;32.00;96.70;;;;;;5066539;28;20409;-77
2023/08/22 09:10:02;;;;;;;6.97;6.20;;;32.10;96.70;;;;;;5030275;28;20049;-76
2023/08/22 09:12:33;;;;;;;7.95;6.30;;;32.10;96.70;;;;;;5055417;28;20045;-76
2023/08/22 09:15:09;;;;;;;7.20;6.35;;;32.20;96.70;;;;;;5064773;28;20041;-76
2023/08/22 09:17:40;;;;;;;7.40;6.78;;;32.30;96.70;;;;;;5066519;28;20044;-74
2023/08/22 09:20:10;;;;;;;7.93;6.35;;;32.40;96.70;;;;;;5060720;28;20062;-75
2023/08/22 09:22:39;;;;;;;8.75;7.05;;;32.60;96.70;;;;;;5065625;28;20071;-76
2023/08/22 09:25:08;;;;;;;6.90;6.30;;;32.70;96.70;;;;;;5071753;28;20142;-76
2023/08/22 09:27:38;;;;;;;11.15;6.90;;;32.80;96.70;;;;;;5066452;28;20041;-76
2023/08/22 09:30:11;;;;;;;7.63;6.32;;;32.90;96.70;;;;;;5047102;28;20063;-76
2023/08/22 09:32:39;;;;;;;8.48;6.95;;;33.00;96.70;;;;;;5048291;28;20127;-76
2023/08/22 09:35:08;;;;;;;7.38;6.68;;;33.00;96.70;;;;;;5047853;28;20044;-76
2023/08/22 09:37:38;;;;;;;7.38;6.43;;;33.10;96.70;;;;;;5048516;28;20044;-76
2023/08/22 09:40:09;;;;;;;6.93;6.28;;;33.20;96.70;;;;;;5050536;28;20037;-76
2023/08/22 09:42:39;;;;;;;9.45;6.43;;;33.30;96.70;;;;;;5048378;28;20135;-75
2023/08/22 09:45:10;;;;;;;7.38;6.63;;;33.40;96.70;;;;;;5023571;28;20543;-76
2023/08/22 09:47:44;;;;;;;7.15;6.45;;;33.50;96.70;;;;;;5066098;28;20041;-76
2023/08/22 09:50:18;;;;;;;6.95;6.20;;;33.60;96.70;;;;;;5057294;28;20498;-76
2023/08/22 09:52:48;;;;;;;7.63;6.93;;;33.70;96.70;;;;;;5047584;28;20052;-75
2023/08/22 09:55:17;;;;;;;7.07;6.30;;;33.70;96.70;;;;;;5047532;28;20576;-80
2023/08/22 09:57:46;;;;;;;7.35;6.28;;;33.90;96.70;;;;;;5028689;28;20056;-80
2023/08/22 10:00:16;;;;;;;9.02;6.03;;;34.10;96.70;;;;;;5048551;28;20106;-81
2023/08/22 10:02:46;;;;;;;7.28;6.20;;;34.20;96.70;;;;;;5049918;28;20091;-79
2023/08/22 10:05:15;;;;;;;7.60;6.30;;;34.20;96.70;;;;;;5047180;28;20049;-80
2023/08/22 10:07:43;;;;;;;6.47;5.80;;;34.30;96.70;;;;;;5046077;28;20136;-79
2023/08/22 10:10:13;;;;;;;6.72;6.13;;;34.50;96.70;;;;;;5049718;28;20144;-80
2023/08/22 10:12:42;;;;;;;7.05;6.25;;;34.60;96.70;;;;;;5048405;28;20150;-80
2023/08/22 10:15:15;;;;;;;6.88;6.10;;;34.70;96.70;;;;;;5047405;28;20079;-80
2023/08/22 10:17:46;;;;;;;6.32;5.30;;;34.70;96.70;;;;;;5047453;28;20048;-80
2023/08/22 10:20:16;;;;;;;6.20;5.60;;;34.90;96.70;;;;;;5045871;28;20056;-79
2023/08/22 10:22:44;;;;;;;5.78;5.35;;;34.90;96.70;;;;;;5044202;28;20135;-80
2023/08/22 10:25:13;;;;;;;6.93;6.30;;;35.00;96.70;;;;;;5047736;28;20067;-81
2023/08/22 10:27:47;;;;;;;14.23;5.25;;;35.10;96.70;;;;;;5065910;28;20114;-80
2023/08/22 10:30:20;;;;;;;5.90;5.50;;;35.20;96.70;;;;;;5045649;28;20559;-80
2023/08/22 10:33:11;;;;;;;6.13;5.47;;;35.20;96.70;;;;;;5065612;28;20048;-79
2023/08/22 10:36:14;;;;;;;6.18;5.57;;;35.30;96.70;;;;;;5049506;28;20135;-80
2023/08/22 10:38:52;;;;;;;7.82;5.18;;;35.50;96.70;;;;;;5041465;28;20056;-80
2023/08/22 10:41:43;;;;;;;5.85;5.28;;;35.60;96.70;;;;;;5049357;28;20049;-80
2023/08/22 10:44:17;;;;;;;6.07;5.40;;;35.60;96.70;;;;;;5040320;28;20045;-80
2023/08/22 10:46:59;;;;;;;5.88;5.32;;;35.70;96.70;;;;;;5046270;28;20468;-80
2023/08/22 10:49:33;;;;;;;5.47;5.05;;;35.80;96.70;;;;;;5063242;28;20047;-80
2023/08/22 10:52:06;;;;;;;6.47;5.38;;;35.90;96.70;;;;;;5044298;28;20131;-82
2023/08/22 10:55:01;;;;;;;5.75;5.25;;;36.00;96.70;;;;;;5042338;28;20040;-82
2023/08/22 10:57:31;;;;;;;5.40;4.97;;;36.00;96.70;;;;;;5043237;28;20045;-80
2023/08/22 11:02:37;;;;;;;7.25;5.18;;;36.30;96.70;;;;;;5059985;28;20201;-79
2023/08/22 11:05:10;;;;;;;6.45;5.22;;;36.60;96.70;;;;;;5064954;28;20371;-80
2023/08/22 11:07:42;;;;;;;5.22;4.72;;;36.80;96.70;;;;;;5046384;28;20063;-81
2023/08/22 11:10:13;;;;;;;7.43;4.93;;;36.70;96.70;;;;;;5055786;28;20146;-79
2023/08/22 11:12:45;;;;;;;6.47;4.95;;;36.60;96.70;;;;;;5061533;28;20570;-82
2023/08/22 11:15:15;;;;;;;5.65;5.18;;;36.60;96.70;;;;;;5047533;28;20052;-83
2023/08/22 11:17:45;;;;;;;5.65;5.03;;;36.60;96.70;;;;;;5031352;28;20119;-82
2023/08/22 11:20:20;;;;;;;5.25;4.75;;;36.60;96.70;;;;;;5058658;28;20037;-82
2023/08/22 11:22:49;;;;;;;6.72;4.75;;;36.70;96.70;;;;;;5047849;28;20501;-82
2023/08/22 11:25:22;;;;;;;6.13;4.55;;;36.80;96.70;;;;;;5044480;28;20425;-81
2023/08/22 11:27:51;;;;;;;4.88;4.47;;;36.70;96.70;;;;;;5044846;28;20052;-82
2023/08/22 11:30:20;;;;;;;5.53;5.00;;;36.80;96.70;;;;;;5054740;28;20696;-80
2023/08/22 11:32:48;;;;;;;5.38;4.88;;;36.90;96.70;;;;;;5036511;28;20127;-79
2023/08/22 11:35:18;;;;;;;5.70;5.00;;;37.00;96.70;;;;;;5045373;28;20059;-79
2023/08/22 11:37:46;;;;;;;5.75;4.80;;;37.10;96.70;;;;;;5064503;28;20041;-80
2023/08/22 11:40:15;;;;;;;5.00;4.53;;;37.10;96.70;;;;;;5046554;28;20033;-79
2023/08/22 11:42:47;;;;;;;5.15;4.72;;;37.20;96.70;;;;;;5060856;28;20480;-81
2023/08/22 11:45:22;;;;;;;5.10;4.65;;;37.20;96.70;;;;;;5044827;28;20078;-79
2023/08/22 11:47:52;;;;;;;5.57;5.00;;;37.30;96.70;;;;;;5030272;28;20052;-80
2023/08/22 11:50:24;;;;;;;4.65;4.28;;;37.30;96.70;;;;;;5046221;28;20054;-82
2023/08/22 11:52:54;;;;;;;5.03;4.53;;;37.30;96.70;;;;;;5046273;28;20127;-80
2023/08/22 11:55:26;;;;;;;4.65;4.25;;;37.30;96.70;;;;;;5029088;28;20048;-80
2023/08/22 11:57:56;;;;;;;5.10;4.60;;;37.20;96.70;;;;;;5043351;28;20088;-80
2023/08/22 12:00:27;;;;;;;5.15;4.63;;;37.50;96.70;;;;;;5036946;28;20041;-80
2023/08/22 12:02:56;;;;;;;5.13;4.57;;;37.50;96.70;;;;;;5046187;28;20506;-80
2023/08/22 12:05:33;;;;;;;5.07;4.57;;;37.90;96.70;;;;;;5055052;28;20048;-82
2023/08/22 12:08:15;;;;;;;4.93;4.53;;;38.00;96.70;;;;;;5063155;28;20490;-80
2023/08/22 12:10:44;;;;;;;4.72;4.32;;;37.70;96.70;;;;;;5042690;28;20069;-80
2023/08/22 12:13:13;;;;;;;4.65;4.25;;;37.70;96.70;;;;;;5043625;28;20051;-81
2023/08/22 12:15:42;;;;;;;5.30;4.78;;;38.00;96.70;;;;;;5045691;28;20047;-80
2023/08/22 12:18:11;;;;;;;4.75;4.20;;;38.10;96.70;;;;;;5043890;28;20062;-80
2023/08/22 12:20:43;;;;;;;5.18;4.13;;;38.20;96.70;;;;;;5051699;28;20519;-80
2023/08/22 12:23:12;;;;;;;6.53;4.43;;;38.20;96.70;;;;;;5045564;28;20056;-81
2023/08/22 12:25:41;;;;;;;4.70;4.20;;;38.20;96.70;;;;;;5062456;28;20044;-80
2023/08/22 12:28:09;;;;;;;5.43;4.57;;;38.10;96.70;;;;;;5069999;28;20072;-81
2023/08/22 12:30:38;;;;;;;5.03;4.20;;;38.00;96.70;;;;;;5059769;28;20049;-80
2023/08/22 12:33:08;;;;;;;5.35;4.35;;;38.00;96.70;;;;;;5051784;28;20044;-81
2023/08/22 12:35:38;;;;;;;5.60;4.30;;;38.30;96.70;;;;;;5062219;28;20042;-81
2023/08/22 12:38:08;;;;;;;4.72;4.20;;;38.40;96.70;;;;;;5050174;28;20052;-81
2023/08/22 12:40:36;;;;;;;5.43;4.38;;;38.40;95.80;;;;;;5051917;28;20135;-80
2023/08/22 12:43:05;;;;;;;4.70;4.28;;;38.20;95.30;;;;;;5052749;28;20048;-81
2023/08/22 12:45:36;;;;;;;6.38;4.32;;;38.10;96.30;;;;;;5052140;28;20082;-82
2023/08/22 12:48:05;;;;;;;5.00;4.60;;;38.10;96.70;;;;;;5067907;28;20565;-79
2023/08/22 12:50:34;;;;;;;4.72;4.32;;;38.20;96.70;;;;;;5054566;28;20044;-81
2023/08/22 12:53:04;;;;;;;5.95;4.20;;;38.40;96.70;;;;;;5050386;28;20041;-80
2023/08/22 12:55:33;;;;;;;4.75;4.13;;;38.40;96.30;;;;;;5051437;28;20037;-80
2023/08/22 12:58:02;;;;;;;4.68;3.92;;;38.40;95.70;;;;;;5051832;28;20049;-78
2023/08/22 13:00:30;;;;;;;5.10;3.92;;;38.60;95.20;;;;;;5047977;28;20048;-80
2023/08/22 13:02:58;;;;;;;4.70;4.30;;;38.70;94.90;;;;;;5048394;28;20059;-80